sensor_id;sensor_type;location;lat;lon;timestamp;P1;durP1;ratioP1;P2;durP2;ratioP2
71648;SDS011;70112;45.624;11.760;2023-06-19T00:01:44;11.40;;;10.20;;
71648;SDS011;70112;45.624;11.760;2023-06-19T00:04:10;12.00;;;9.70;;
71648;SDS011;70112;45.624;11.760;2023-06-19T00:06:36;10.90;;;9.70;;
71648;SDS011;70112;45.624;11.760;2023-06-19T00:09:02;11.40;;;10.20;;
71648;SDS011;70112;45.624;11.760;2023-06-19T00:11:28;13.00;;;10.70;;
71648;SDS011;70112;45.624;11.760;2023-06-19T00:13:54;15.90;;;10.80;;
71648;SDS011;70112;45.624;11.760;2023-06-19T00:16:19;13.20;;;9.90;;
71648;SDS011;70112;45.624;11.760;2023-06-19T00:18:45;13.70;;;10.40;;
71648;SDS011;70112;45.624;11.760;2023-06-19T00:21:11;12.70;;;10.40;;
71648;SDS011;70112;45.624;11.760;2023-06-19T00:23:37;13.00;;;11.00;;
71648;SDS011;70112;45.624;11.760;2023-06-19T00:26:03;11.50;;;10.20;;
71648;SDS011;70112;45.624;11.760;2023-06-19T00:28:29;13.70;;;10.70;;
71648;SDS011;70112;45.624;11.760;2023-06-19T00:30:55;13.60;;;10.80;;
71648;SDS011;70112;45.624;11.760;2023-06-19T00:33:21;13.00;;;11.20;;
71648;SDS011;70112;45.624;11.760;2023-06-19T00:35:47;12.90;;;10.10;;
71648;SDS011;70112;45.624;11.760;2023-06-19T00:38:15;11.90;;;10.30;;
71648;SDS011;70112;45.624;11.760;2023-06-19T00:40:40;15.00;;;11.10;;
71648;SDS011;70112;45.624;11.760;2023-06-19T00:43:06;13.10;;;11.40;;
71648;SDS011;70112;45.624;11.760;2023-06-19T00:45:31;14.10;;;11.60;;
71648;SDS011;70112;45.624;11.760;2023-06-19T00:47:58;15.40;;;11.40;;
71648;SDS011;70112;45.624;11.760;2023-06-19T00:50:25;13.40;;;11.10;;
71648;SDS011;70112;45.624;11.760;2023-06-19T00:52:51;11.90;;;10.70;;
71648;SDS011;70112;45.624;11.760;2023-06-19T00:55:17;11.10;;;10.00;;
71648;SDS011;70112;45.624;11.760;2023-06-19T00:57:45;12.60;;;11.20;;
71648;SDS011;70112;45.624;11.760;2023-06-19T01:00:11;11.70;;;10.30;;
71648;SDS011;70112;45.624;11.760;2023-06-19T01:02:38;11.80;;;10.40;;
71648;SDS011;70112;45.624;11.760;2023-06-19T01:05:04;12.20;;;11.00;;
71648;SDS011;70112;45.624;11.760;2023-06-19T01:10:36;13.00;;;11.30;;
71648;SDS011;70112;45.624;11.760;2023-06-19T01:13:14;15.80;;;10.90;;
71648;SDS011;70112;45.624;11.760;2023-06-19T01:15:45;11.60;;;10.40;;
71648;SDS011;70112;45.624;11.760;2023-06-19T01:18:12;11.20;;;10.10;;
71648;SDS011;70112;45.624;11.760;2023-06-19T01:20:38;11.80;;;10.60;;
71648;SDS011;70112;45.624;11.760;2023-06-19T01:23:10;12.10;;;10.80;;
71648;SDS011;70112;45.624;11.760;2023-06-19T01:25:37;12.30;;;11.10;;
71648;SDS011;70112;45.624;11.760;2023-06-19T01:28:04;13.40;;;12.00;;
71648;SDS011;70112;45.624;11.760;2023-06-19T01:30:31;12.80;;;10.90;;
71648;SDS011;70112;45.624;11.760;2023-06-19T01:33:08;12.60;;;11.10;;
71648;SDS011;70112;45.624;11.760;2023-06-19T01:35:39;13.90;;;10.90;;
71648;SDS011;70112;45.624;11.760;2023-06-19T01:38:06;13.60;;;10.80;;
71648;SDS011;70112;45.624;11.760;2023-06-19T01:40:32;14.00;;;12.20;;
71648;SDS011;70112;45.624;11.760;2023-06-19T01:42:59;13.20;;;11.60;;
71648;SDS011;70112;45.624;11.760;2023-06-19T01:45:30;14.00;;;10.90;;
71648;SDS011;70112;45.624;11.760;2023-06-19T01:47:56;12.80;;;11.40;;
71648;SDS011;70112;45.624;11.760;2023-06-19T01:50:23;12.90;;;11.50;;
71648;SDS011;70112;45.624;11.760;2023-06-19T01:52:49;11.60;;;10.50;;
71648;SDS011;70112;45.624;11.760;2023-06-19T01:55:15;12.30;;;11.10;;
71648;SDS011;70112;45.624;11.760;2023-06-19T01:57:40;12.50;;;11.30;;
71648;SDS011;70112;45.624;11.760;2023-06-19T02:00:06;12.50;;;10.40;;
71648;SDS011;70112;45.624;11.760;2023-06-19T02:02:38;12.40;;;11.00;;
71648;SDS011;70112;45.624;11.760;2023-06-19T02:05:04;13.10;;;11.10;;
71648;SDS011;70112;45.624;11.760;2023-06-19T02:07:30;12.80;;;11.40;;
71648;SDS011;70112;45.624;11.760;2023-06-19T02:09:56;13.60;;;10.80;;
71648;SDS011;70112;45.624;11.760;2023-06-19T02:12:22;12.70;;;11.20;;
71648;SDS011;70112;45.624;11.760;2023-06-19T02:14:48;15.30;;;11.10;;
71648;SDS011;70112;45.624;11.760;2023-06-19T02:17:14;12.80;;;11.10;;
71648;SDS011;70112;45.624;11.760;2023-06-19T02:19:40;13.90;;;11.40;;
71648;SDS011;70112;45.624;11.760;2023-06-19T02:22:05;12.50;;;11.00;;
71648;SDS011;70112;45.624;11.760;2023-06-19T02:24:32;15.30;;;11.10;;
71648;SDS011;70112;45.624;11.760;2023-06-19T02:26:57;13.60;;;11.30;;
71648;SDS011;70112;45.624;11.760;2023-06-19T02:29:24;12.70;;;11.40;;
71648;SDS011;70112;45.624;11.760;2023-06-19T02:31:50;14.40;;;10.60;;
71648;SDS011;70112;45.624;11.760;2023-06-19T02:34:15;12.40;;;11.10;;
71648;SDS011;70112;45.624;11.760;2023-06-19T02:36:41;13.30;;;10.80;;
71648;SDS011;70112;45.624;11.760;2023-06-19T02:39:08;11.90;;;10.70;;
71648;SDS011;70112;45.624;11.760;2023-06-19T02:41:34;13.20;;;10.70;;
71648;SDS011;70112;45.624;11.760;2023-06-19T02:44:00;13.00;;;11.10;;
71648;SDS011;70112;45.624;11.760;2023-06-19T02:46:25;12.20;;;10.80;;
71648;SDS011;70112;45.624;11.760;2023-06-19T02:48:51;11.50;;;10.10;;
71648;SDS011;70112;45.624;11.760;2023-06-19T02:51:16;12.70;;;10.80;;
71648;SDS011;70112;45.624;11.760;2023-06-19T02:53:42;11.70;;;10.50;;
71648;SDS011;70112;45.624;11.760;2023-06-19T02:56:09;12.00;;;10.60;;
71648;SDS011;70112;45.624;11.760;2023-06-19T02:58:36;12.50;;;11.20;;
71648;SDS011;70112;45.624;11.760;2023-06-19T03:01:03;13.90;;;10.80;;
71648;SDS011;70112;45.624;11.760;2023-06-19T03:03:32;13.00;;;11.50;;
71648;SDS011;70112;45.624;11.760;2023-06-19T03:06:05;17.30;;;12.00;;
71648;SDS011;70112;45.624;11.760;2023-06-19T03:08:35;14.80;;;10.80;;
71648;SDS011;70112;45.624;11.760;2023-06-19T03:11:01;13.70;;;12.20;;
71648;SDS011;70112;45.624;11.760;2023-06-19T03:13:31;14.10;;;11.70;;
71648;SDS011;70112;45.624;11.760;2023-06-19T03:16:08;12.60;;;11.40;;
71648;SDS011;70112;45.624;11.760;2023-06-19T03:18:34;12.30;;;11.00;;
71648;SDS011;70112;45.624;11.760;2023-06-19T03:20:59;13.50;;;11.10;;
71648;SDS011;70112;45.624;11.760;2023-06-19T03:23:25;11.70;;;10.50;;
71648;SDS011;70112;45.624;11.760;2023-06-19T03:25:50;12.50;;;11.20;;
71648;SDS011;70112;45.624;11.760;2023-06-19T03:28:16;13.00;;;11.70;;
71648;SDS011;70112;45.624;11.760;2023-06-19T03:30:41;12.90;;;11.10;;
71648;SDS011;70112;45.624;11.760;2023-06-19T03:33:07;15.40;;;11.00;;
71648;SDS011;70112;45.624;11.760;2023-06-19T03:35:32;17.10;;;11.30;;
71648;SDS011;70112;45.624;11.760;2023-06-19T03:37:57;12.50;;;11.20;;
71648;SDS011;70112;45.624;11.760;2023-06-19T03:40:23;12.10;;;10.90;;
71648;SDS011;70112;45.624;11.760;2023-06-19T03:42:48;12.00;;;10.70;;
71648;SDS011;70112;45.624;11.760;2023-06-19T03:45:14;12.60;;;11.30;;
71648;SDS011;70112;45.624;11.760;2023-06-19T03:47:40;12.80;;;11.50;;
71648;SDS011;70112;45.624;11.760;2023-06-19T03:50:06;11.90;;;10.70;;
71648;SDS011;70112;45.624;11.760;2023-06-19T03:52:35;12.70;;;11.40;;
71648;SDS011;70112;45.624;11.760;2023-06-19T03:55:03;14.20;;;12.20;;
71648;SDS011;70112;45.624;11.760;2023-06-19T03:57:29;13.50;;;11.90;;
71648;SDS011;70112;45.624;11.760;2023-06-19T03:59:54;15.20;;;11.90;;
71648;SDS011;70112;45.624;11.760;2023-06-19T04:02:21;14.00;;;12.00;;
71648;SDS011;70112;45.624;11.760;2023-06-19T04:04:47;13.20;;;11.90;;
71648;SDS011;70112;45.624;11.760;2023-06-19T04:07:12;13.40;;;12.00;;
71648;SDS011;70112;45.624;11.760;2023-06-19T04:09:38;14.50;;;12.60;;
71648;SDS011;70112;45.624;11.760;2023-06-19T04:12:05;12.60;;;11.30;;
71648;SDS011;70112;45.624;11.760;2023-06-19T04:14:30;12.20;;;10.60;;
71648;SDS011;70112;45.624;11.760;2023-06-19T04:16:56;16.10;;;11.90;;
71648;SDS011;70112;45.624;11.760;2023-06-19T04:19:21;11.80;;;10.50;;
71648;SDS011;70112;45.624;11.760;2023-06-19T04:21:47;12.90;;;11.60;;
71648;SDS011;70112;45.624;11.760;2023-06-19T04:24:12;14.80;;;11.70;;
71648;SDS011;70112;45.624;11.760;2023-06-19T04:26:38;15.90;;;11.80;;
71648;SDS011;70112;45.624;11.760;2023-06-19T04:29:03;14.20;;;11.40;;
71648;SDS011;70112;45.624;11.760;2023-06-19T04:31:30;12.30;;;11.00;;
71648;SDS011;70112;45.624;11.760;2023-06-19T04:33:56;13.40;;;11.90;;
71648;SDS011;70112;45.624;11.760;2023-06-19T04:36:22;12.80;;;10.80;;
71648;SDS011;70112;45.624;11.760;2023-06-19T04:38:48;13.90;;;11.50;;
71648;SDS011;70112;45.624;11.760;2023-06-19T04:41:17;17.30;;;12.00;;
71648;SDS011;70112;45.624;11.760;2023-06-19T04:43:42;15.20;;;12.10;;
71648;SDS011;70112;45.624;11.760;2023-06-19T04:46:07;13.30;;;12.00;;
71648;SDS011;70112;45.624;11.760;2023-06-19T04:48:33;14.40;;;12.70;;
71648;SDS011;70112;45.624;11.760;2023-06-19T04:51:01;12.50;;;11.20;;
71648;SDS011;70112;45.624;11.760;2023-06-19T04:53:28;14.90;;;12.50;;
71648;SDS011;70112;45.624;11.760;2023-06-19T04:55:53;12.10;;;11.00;;
71648;SDS011;70112;45.624;11.760;2023-06-19T04:58:21;14.50;;;12.00;;
71648;SDS011;70112;45.624;11.760;2023-06-19T05:00:47;12.60;;;11.30;;
71648;SDS011;70112;45.624;11.760;2023-06-19T05:03:17;12.20;;;10.90;;
71648;SDS011;70112;45.624;11.760;2023-06-19T05:05:44;13.90;;;11.90;;
71648;SDS011;70112;45.624;11.760;2023-06-19T05:08:09;13.60;;;12.20;;
71648;SDS011;70112;45.624;11.760;2023-06-19T05:10:35;15.30;;;12.00;;
71648;SDS011;70112;45.624;11.760;2023-06-19T05:13:00;14.00;;;12.50;;
71648;SDS011;70112;45.624;11.760;2023-06-19T05:15:27;17.60;;;12.50;;
71648;SDS011;70112;45.624;11.760;2023-06-19T05:17:53;14.80;;;12.30;;
71648;SDS011;70112;45.624;11.760;2023-06-19T05:20:19;15.20;;;11.60;;
71648;SDS011;70112;45.624;11.760;2023-06-19T05:22:45;12.60;;;11.30;;
71648;SDS011;70112;45.624;11.760;2023-06-19T05:25:11;12.30;;;10.70;;
71648;SDS011;70112;45.624;11.760;2023-06-19T05:27:36;16.00;;;11.10;;
71648;SDS011;70112;45.624;11.760;2023-06-19T05:30:02;16.80;;;12.50;;
71648;SDS011;70112;45.624;11.760;2023-06-19T05:32:29;18.60;;;11.80;;
71648;SDS011;70112;45.624;11.760;2023-06-19T05:34:55;13.50;;;10.60;;
71648;SDS011;70112;45.624;11.760;2023-06-19T05:37:21;15.80;;;10.90;;
71648;SDS011;70112;45.624;11.760;2023-06-19T05:39:48;21.10;;;11.10;;
71648;SDS011;70112;45.624;11.760;2023-06-19T05:42:14;15.80;;;11.90;;
71648;SDS011;70112;45.624;11.760;2023-06-19T05:44:39;12.40;;;10.70;;
71648;SDS011;70112;45.624;11.760;2023-06-19T05:47:05;12.10;;;10.00;;
71648;SDS011;70112;45.624;11.760;2023-06-19T05:49:31;13.90;;;9.90;;
71648;SDS011;70112;45.624;11.760;2023-06-19T05:51:57;15.20;;;11.10;;
71648;SDS011;70112;45.624;11.760;2023-06-19T05:54:25;12.20;;;10.80;;
71648;SDS011;70112;45.624;11.760;2023-06-19T05:56:52;12.00;;;10.80;;
71648;SDS011;70112;45.624;11.760;2023-06-19T05:59:17;13.60;;;11.30;;
71648;SDS011;70112;45.624;11.760;2023-06-19T06:01:43;17.90;;;11.40;;
71648;SDS011;70112;45.624;11.760;2023-06-19T06:04:08;14.90;;;11.70;;
71648;SDS011;70112;45.624;11.760;2023-06-19T06:06:34;15.90;;;11.70;;
71648;SDS011;70112;45.624;11.760;2023-06-19T06:09:00;15.60;;;13.80;;
71648;SDS011;70112;45.624;11.760;2023-06-19T06:11:25;18.70;;;12.60;;
71648;SDS011;70112;45.624;11.760;2023-06-19T06:13:51;14.00;;;12.20;;
71648;SDS011;70112;45.624;11.760;2023-06-19T06:16:17;14.30;;;12.10;;
71648;SDS011;70112;45.624;11.760;2023-06-19T06:18:42;12.80;;;11.40;;
71648;SDS011;70112;45.624;11.760;2023-06-19T06:21:08;14.90;;;11.10;;
71648;SDS011;70112;45.624;11.760;2023-06-19T06:23:33;17.60;;;10.40;;
71648;SDS011;70112;45.624;11.760;2023-06-19T06:25:58;13.60;;;10.40;;
71648;SDS011;70112;45.624;11.760;2023-06-19T06:28:28;13.20;;;9.30;;
71648;SDS011;70112;45.624;11.760;2023-06-19T06:30:54;11.20;;;8.40;;
71648;SDS011;70112;45.624;11.760;2023-06-19T06:33:20;9.30;;;8.00;;
71648;SDS011;70112;45.624;11.760;2023-06-19T06:35:46;13.20;;;8.40;;
71648;SDS011;70112;45.624;11.760;2023-06-19T06:38:11;18.30;;;9.40;;
71648;SDS011;70112;45.624;11.760;2023-06-19T06:40:39;15.70;;;8.60;;
71648;SDS011;70112;45.624;11.760;2023-06-19T06:43:06;9.50;;;8.30;;
71648;SDS011;70112;45.624;11.760;2023-06-19T06:45:32;10.40;;;8.20;;
71648;SDS011;70112;45.624;11.760;2023-06-19T06:47:57;12.80;;;7.40;;
71648;SDS011;70112;45.624;11.760;2023-06-19T06:50:23;8.80;;;7.10;;
71648;SDS011;70112;45.624;11.760;2023-06-19T06:52:49;8.50;;;6.70;;
71648;SDS011;70112;45.624;11.760;2023-06-19T06:55:14;10.50;;;6.90;;
71648;SDS011;70112;45.624;11.760;2023-06-19T06:57:40;8.40;;;7.20;;
71648;SDS011;70112;45.624;11.760;2023-06-19T07:00:06;7.20;;;6.40;;
71648;SDS011;70112;45.624;11.760;2023-06-19T07:02:35;12.30;;;7.30;;
71648;SDS011;70112;45.624;11.760;2023-06-19T07:05:00;7.30;;;6.60;;
71648;SDS011;70112;45.624;11.760;2023-06-19T07:07:25;9.80;;;6.30;;
71648;SDS011;70112;45.624;11.760;2023-06-19T07:09:51;10.70;;;6.50;;
71648;SDS011;70112;45.624;11.760;2023-06-19T07:12:17;7.90;;;6.20;;
71648;SDS011;70112;45.624;11.760;2023-06-19T07:14:42;8.60;;;6.50;;
71648;SDS011;70112;45.624;11.760;2023-06-19T07:17:08;10.70;;;6.30;;
71648;SDS011;70112;45.624;11.760;2023-06-19T07:19:33;9.50;;;6.00;;
71648;SDS011;70112;45.624;11.760;2023-06-19T07:21:59;9.80;;;5.70;;
71648;SDS011;70112;45.624;11.760;2023-06-19T07:24:24;10.90;;;5.80;;
71648;SDS011;70112;45.624;11.760;2023-06-19T07:26:50;7.10;;;5.60;;
71648;SDS011;70112;45.624;11.760;2023-06-19T07:29:16;7.10;;;5.40;;
71648;SDS011;70112;45.624;11.760;2023-06-19T07:31:41;8.50;;;5.20;;
71648;SDS011;70112;45.624;11.760;2023-06-19T07:34:09;8.10;;;5.30;;
71648;SDS011;70112;45.624;11.760;2023-06-19T07:36:35;8.50;;;6.10;;
71648;SDS011;70112;45.624;11.760;2023-06-19T07:39:00;8.80;;;6.10;;
71648;SDS011;70112;45.624;11.760;2023-06-19T07:41:26;8.70;;;5.80;;
71648;SDS011;70112;45.624;11.760;2023-06-19T07:43:52;8.90;;;6.00;;
71648;SDS011;70112;45.624;11.760;2023-06-19T07:46:17;8.50;;;5.80;;
71648;SDS011;70112;45.624;11.760;2023-06-19T07:48:43;12.00;;;6.20;;
71648;SDS011;70112;45.624;11.760;2023-06-19T07:51:08;6.90;;;5.60;;
71648;SDS011;70112;45.624;11.760;2023-06-19T07:53:33;10.50;;;6.40;;
71648;SDS011;70112;45.624;11.760;2023-06-19T07:55:59;11.40;;;6.10;;
71648;SDS011;70112;45.624;11.760;2023-06-19T07:58:24;7.50;;;6.70;;
71648;SDS011;70112;45.624;11.760;2023-06-19T08:00:50;7.70;;;6.30;;
71648;SDS011;70112;45.624;11.760;2023-06-19T08:03:15;12.80;;;6.80;;
71648;SDS011;70112;45.624;11.760;2023-06-19T08:05:41;9.80;;;6.90;;
71648;SDS011;70112;45.624;11.760;2023-06-19T08:08:06;11.80;;;6.40;;
71648;SDS011;70112;45.624;11.760;2023-06-19T08:10:32;12.60;;;8.40;;
71648;SDS011;70112;45.624;11.760;2023-06-19T08:12:57;10.80;;;7.70;;
71648;SDS011;70112;45.624;11.760;2023-06-19T08:15:22;9.70;;;7.10;;
71648;SDS011;70112;45.624;11.760;2023-06-19T08:17:48;10.40;;;7.70;;
71648;SDS011;70112;45.624;11.760;2023-06-19T08:20:13;8.60;;;7.50;;
71648;SDS011;70112;45.624;11.760;2023-06-19T08:22:41;12.20;;;7.50;;
71648;SDS011;70112;45.624;11.760;2023-06-19T08:25:06;12.10;;;7.70;;
71648;SDS011;70112;45.624;11.760;2023-06-19T08:27:32;8.70;;;7.00;;
71648;SDS011;70112;45.624;11.760;2023-06-19T08:29:58;9.90;;;7.80;;
71648;SDS011;70112;45.624;11.760;2023-06-19T08:32:23;8.70;;;6.80;;
71648;SDS011;70112;45.624;11.760;2023-06-19T08:34:50;9.10;;;6.50;;
71648;SDS011;70112;45.624;11.760;2023-06-19T08:37:17;18.40;;;7.00;;
71648;SDS011;70112;45.624;11.760;2023-06-19T08:39:43;11.70;;;6.40;;
71648;SDS011;70112;45.624;11.760;2023-06-19T08:42:09;11.80;;;6.10;;
71648;SDS011;70112;45.624;11.760;2023-06-19T08:44:36;8.40;;;5.90;;
71648;SDS011;70112;45.624;11.760;2023-06-19T08:47:05;8.00;;;6.10;;
71648;SDS011;70112;45.624;11.760;2023-06-19T08:49:33;13.50;;;6.50;;
71648;SDS011;70112;45.624;11.760;2023-06-19T08:51:59;8.00;;;5.80;;
71648;SDS011;70112;45.624;11.760;2023-06-19T08:54:25;9.30;;;5.70;;
71648;SDS011;70112;45.624;11.760;2023-06-19T08:56:50;6.40;;;5.80;;
71648;SDS011;70112;45.624;11.760;2023-06-19T08:59:19;8.80;;;6.70;;
71648;SDS011;70112;45.624;11.760;2023-06-19T09:01:48;12.30;;;6.60;;
71648;SDS011;70112;45.624;11.760;2023-06-19T09:04:21;10.00;;;5.70;;
71648;SDS011;70112;45.624;11.760;2023-06-19T09:09:16;6.80;;;5.60;;
71648;SDS011;70112;45.624;11.760;2023-06-19T09:11:43;11.10;;;5.50;;
71648;SDS011;70112;45.624;11.760;2023-06-19T09:14:10;9.80;;;5.90;;
71648;SDS011;70112;45.624;11.760;2023-06-19T09:16:40;8.80;;;6.20;;
71648;SDS011;70112;45.624;11.760;2023-06-19T09:19:07;6.50;;;5.60;;
71648;SDS011;70112;45.624;11.760;2023-06-19T09:21:35;11.70;;;5.60;;
71648;SDS011;70112;45.624;11.760;2023-06-19T09:24:06;8.20;;;5.20;;
71648;SDS011;70112;45.624;11.760;2023-06-19T09:26:34;7.90;;;5.70;;
71648;SDS011;70112;45.624;11.760;2023-06-19T09:29:10;6.20;;;5.10;;
71648;SDS011;70112;45.624;11.760;2023-06-19T09:31:41;11.40;;;6.70;;
71648;SDS011;70112;45.624;11.760;2023-06-19T09:34:07;9.50;;;5.60;;
71648;SDS011;70112;45.624;11.760;2023-06-19T09:36:34;7.50;;;5.40;;
71648;SDS011;70112;45.624;11.760;2023-06-19T09:39:02;5.60;;;5.00;;
71648;SDS011;70112;45.624;11.760;2023-06-19T09:41:29;9.10;;;5.20;;
71648;SDS011;70112;45.624;11.760;2023-06-19T09:43:56;7.00;;;5.30;;
71648;SDS011;70112;45.624;11.760;2023-06-19T09:46:32;7.00;;;5.10;;
71648;SDS011;70112;45.624;11.760;2023-06-19T09:49:01;6.70;;;4.90;;
71648;SDS011;70112;45.624;11.760;2023-06-19T09:51:30;7.10;;;4.50;;
71648;SDS011;70112;45.624;11.760;2023-06-19T09:53:58;5.30;;;4.30;;
71648;SDS011;70112;45.624;11.760;2023-06-19T09:56:27;4.40;;;4.00;;
71648;SDS011;70112;45.624;11.760;2023-06-19T09:58:55;5.60;;;4.30;;
71648;SDS011;70112;45.624;11.760;2023-06-19T10:01:23;4.40;;;3.90;;
71648;SDS011;70112;45.624;11.760;2023-06-19T10:03:49;5.30;;;4.30;;
71648;SDS011;70112;45.624;11.760;2023-06-19T10:06:16;4.50;;;3.80;;
71648;SDS011;70112;45.624;11.760;2023-06-19T10:08:43;4.30;;;3.70;;
71648;SDS011;70112;45.624;11.760;2023-06-19T10:11:12;5.50;;;3.90;;
71648;SDS011;70112;45.624;11.760;2023-06-19T10:13:40;7.90;;;3.80;;
71648;SDS011;70112;45.624;11.760;2023-06-19T10:16:07;7.00;;;3.70;;
71648;SDS011;70112;45.624;11.760;2023-06-19T10:18:45;4.30;;;3.80;;
71648;SDS011;70112;45.624;11.760;2023-06-19T10:21:18;5.30;;;3.90;;
71648;SDS011;70112;45.624;11.760;2023-06-19T10:23:53;4.70;;;4.00;;
71648;SDS011;70112;45.624;11.760;2023-06-19T10:26:29;6.20;;;3.70;;
71648;SDS011;70112;45.624;11.760;2023-06-19T10:28:56;5.70;;;4.00;;
71648;SDS011;70112;45.624;11.760;2023-06-19T10:31:22;5.90;;;3.70;;
71648;SDS011;70112;45.624;11.760;2023-06-19T10:33:47;5.10;;;4.60;;
71648;SDS011;70112;45.624;11.760;2023-06-19T10:36:18;5.30;;;4.50;;
71648;SDS011;70112;45.624;11.760;2023-06-19T10:38:45;5.10;;;4.60;;
71648;SDS011;70112;45.624;11.760;2023-06-19T10:41:24;6.20;;;4.50;;
71648;SDS011;70112;45.624;11.760;2023-06-19T10:44:02;4.70;;;3.90;;
71648;SDS011;70112;45.624;11.760;2023-06-19T10:46:32;4.60;;;4.20;;
71648;SDS011;70112;45.624;11.760;2023-06-19T10:49:00;9.70;;;4.90;;
71648;SDS011;70112;45.624;11.760;2023-06-19T10:51:30;5.00;;;4.60;;
71648;SDS011;70112;45.624;11.760;2023-06-19T10:53:57;5.50;;;4.60;;
71648;SDS011;70112;45.624;11.760;2023-06-19T10:56:23;7.30;;;4.70;;
71648;SDS011;70112;45.624;11.760;2023-06-19T10:59:00;6.50;;;5.60;;
71648;SDS011;70112;45.624;11.760;2023-06-19T11:01:41;5.10;;;4.50;;
71648;SDS011;70112;45.624;11.760;2023-06-19T11:04:10;5.30;;;4.10;;
71648;SDS011;70112;45.624;11.760;2023-06-19T11:06:37;5.20;;;4.60;;
71648;SDS011;70112;45.624;11.760;2023-06-19T11:09:06;7.60;;;4.50;;
71648;SDS011;70112;45.624;11.760;2023-06-19T11:14:10;5.20;;;4.70;;
71648;SDS011;70112;45.624;11.760;2023-06-19T11:16:40;7.50;;;5.20;;
71648;SDS011;70112;45.624;11.760;2023-06-19T11:19:09;7.70;;;5.10;;
71648;SDS011;70112;45.624;11.760;2023-06-19T11:21:47;7.70;;;5.00;;
71648;SDS011;70112;45.624;11.760;2023-06-19T11:24:18;5.30;;;4.80;;
71648;SDS011;70112;45.624;11.760;2023-06-19T11:26:50;9.50;;;4.80;;
71648;SDS011;70112;45.624;11.760;2023-06-19T11:29:23;6.50;;;5.00;;
71648;SDS011;70112;45.624;11.760;2023-06-19T11:32:08;6.40;;;5.30;;
71648;SDS011;70112;45.624;11.760;2023-06-19T11:34:36;7.50;;;4.70;;
71648;SDS011;70112;45.624;11.760;2023-06-19T11:39:43;7.00;;;5.20;;
71648;SDS011;70112;45.624;11.760;2023-06-19T11:42:10;7.90;;;4.70;;
71648;SDS011;70112;45.624;11.760;2023-06-19T11:44:35;6.90;;;4.70;;
71648;SDS011;70112;45.624;11.760;2023-06-19T11:47:01;5.10;;;4.60;;
71648;SDS011;70112;45.624;11.760;2023-06-19T11:49:34;5.00;;;4.60;;
71648;SDS011;70112;45.624;11.760;2023-06-19T11:52:00;5.90;;;4.30;;
71648;SDS011;70112;45.624;11.760;2023-06-19T11:54:26;8.30;;;5.30;;
71648;SDS011;70112;45.624;11.760;2023-06-19T11:56:51;8.30;;;5.40;;
71648;SDS011;70112;45.624;11.760;2023-06-19T11:59:17;5.20;;;4.60;;
71648;SDS011;70112;45.624;11.760;2023-06-19T12:01:42;6.00;;;5.00;;
71648;SDS011;70112;45.624;11.760;2023-06-19T12:04:07;8.30;;;4.50;;
71648;SDS011;70112;45.624;11.760;2023-06-19T12:06:33;6.40;;;4.70;;
71648;SDS011;70112;45.624;11.760;2023-06-19T12:09:01;7.60;;;4.50;;
71648;SDS011;70112;45.624;11.760;2023-06-19T12:11:26;8.10;;;5.50;;
71648;SDS011;70112;45.624;11.760;2023-06-19T12:13:52;7.60;;;4.90;;
71648;SDS011;70112;45.624;11.760;2023-06-19T12:18:48;6.90;;;5.20;;
71648;SDS011;70112;45.624;11.760;2023-06-19T12:21:14;5.80;;;5.20;;
71648;SDS011;70112;45.624;11.760;2023-06-19T12:23:39;6.00;;;5.40;;
71648;SDS011;70112;45.624;11.760;2023-06-19T12:26:04;9.10;;;5.70;;
71648;SDS011;70112;45.624;11.760;2023-06-19T12:28:30;6.60;;;5.50;;
71648;SDS011;70112;45.624;11.760;2023-06-19T12:30:55;7.60;;;5.80;;
71648;SDS011;70112;45.624;11.760;2023-06-19T12:33:22;9.80;;;6.50;;
71648;SDS011;70112;45.624;11.760;2023-06-19T12:35:47;7.20;;;5.90;;
71648;SDS011;70112;45.624;11.760;2023-06-19T12:38:13;7.00;;;6.20;;
71648;SDS011;70112;45.624;11.760;2023-06-19T12:40:39;7.60;;;6.80;;
71648;SDS011;70112;45.624;11.760;2023-06-19T12:43:05;6.20;;;5.20;;
71648;SDS011;70112;45.624;11.760;2023-06-19T12:45:31;6.70;;;5.20;;
71648;SDS011;70112;45.624;11.760;2023-06-19T12:47:57;8.60;;;6.00;;
71648;SDS011;70112;45.624;11.760;2023-06-19T12:50:22;10.30;;;6.10;;
71648;SDS011;70112;45.624;11.760;2023-06-19T12:52:49;7.30;;;6.30;;
71648;SDS011;70112;45.624;11.760;2023-06-19T12:55:15;9.70;;;6.60;;
71648;SDS011;70112;45.624;11.760;2023-06-19T12:57:41;8.50;;;6.20;;
71648;SDS011;70112;45.624;11.760;2023-06-19T13:00:11;6.80;;;6.10;;
71648;SDS011;70112;45.624;11.760;2023-06-19T13:02:40;10.50;;;6.10;;
71648;SDS011;70112;45.624;11.760;2023-06-19T13:05:09;7.10;;;6.00;;
71648;SDS011;70112;45.624;11.760;2023-06-19T13:07:35;8.80;;;6.60;;
71648;SDS011;70112;45.624;11.760;2023-06-19T13:10:01;6.40;;;5.80;;
71648;SDS011;70112;45.624;11.760;2023-06-19T13:12:26;6.90;;;6.00;;
71648;SDS011;70112;45.624;11.760;2023-06-19T13:14:52;7.80;;;6.30;;
71648;SDS011;70112;45.624;11.760;2023-06-19T13:17:18;8.50;;;6.20;;
71648;SDS011;70112;45.624;11.760;2023-06-19T13:19:44;7.10;;;6.40;;
71648;SDS011;70112;45.624;11.760;2023-06-19T13:22:10;8.20;;;6.50;;
71648;SDS011;70112;45.624;11.760;2023-06-19T13:24:35;8.70;;;5.90;;
71648;SDS011;70112;45.624;11.760;2023-06-19T13:27:01;7.30;;;5.90;;
71648;SDS011;70112;45.624;11.760;2023-06-19T13:29:26;10.30;;;5.90;;
71648;SDS011;70112;45.624;11.760;2023-06-19T13:31:51;8.60;;;6.10;;
71648;SDS011;70112;45.624;11.760;2023-06-19T13:34:17;8.40;;;6.10;;
71648;SDS011;70112;45.624;11.760;2023-06-19T13:36:44;6.50;;;5.90;;
71648;SDS011;70112;45.624;11.760;2023-06-19T13:39:10;13.10;;;5.80;;
71648;SDS011;70112;45.624;11.760;2023-06-19T13:41:35;10.40;;;6.60;;
71648;SDS011;70112;45.624;11.760;2023-06-19T13:44:01;9.40;;;6.40;;
71648;SDS011;70112;45.624;11.760;2023-06-19T13:46:27;6.90;;;6.00;;
71648;SDS011;70112;45.624;11.760;2023-06-19T13:48:53;6.40;;;5.60;;
71648;SDS011;70112;45.624;11.760;2023-06-19T13:51:22;6.90;;;6.20;;
71648;SDS011;70112;45.624;11.760;2023-06-19T13:53:48;7.50;;;5.70;;
71648;SDS011;70112;45.624;11.760;2023-06-19T13:56:14;8.40;;;5.80;;
71648;SDS011;70112;45.624;11.760;2023-06-19T13:58:41;8.60;;;6.00;;
71648;SDS011;70112;45.624;11.760;2023-06-19T14:01:07;8.40;;;6.40;;
71648;SDS011;70112;45.624;11.760;2023-06-19T14:03:32;7.60;;;6.10;;
71648;SDS011;70112;45.624;11.760;2023-06-19T14:05:58;10.40;;;5.80;;
71648;SDS011;70112;45.624;11.760;2023-06-19T14:08:24;9.40;;;6.20;;
71648;SDS011;70112;45.624;11.760;2023-06-19T14:10:50;7.10;;;5.60;;
71648;SDS011;70112;45.624;11.760;2023-06-19T14:13:16;8.30;;;5.50;;
71648;SDS011;70112;45.624;11.760;2023-06-19T14:15:42;7.40;;;5.70;;
71648;SDS011;70112;45.624;11.760;2023-06-19T14:18:08;8.00;;;5.80;;
71648;SDS011;70112;45.624;11.760;2023-06-19T14:20:33;9.40;;;6.10;;
71648;SDS011;70112;45.624;11.760;2023-06-19T14:22:59;6.50;;;5.90;;
71648;SDS011;70112;45.624;11.760;2023-06-19T14:25:24;8.80;;;5.80;;
71648;SDS011;70112;45.624;11.760;2023-06-19T14:27:50;6.40;;;5.70;;
71648;SDS011;70112;45.624;11.760;2023-06-19T14:30:15;9.10;;;6.10;;
71648;SDS011;70112;45.624;11.760;2023-06-19T14:32:41;8.90;;;5.90;;